www.cux-wetter.de
Wetterdaten: Sonntag, 05.12.2010
Datum Zeit Temp. A. Feuchte A. Luftdruck Regen Wind Richtung Richtung Sonnenschein Solar Taupunkt Windchill Windben
05.12.2010 00:00 -0,4 C 87 % 1005,5 hPa 0,0 l/m 19,5 km/h (3 Bft) SW 235 0 min 0 W/m -2,3 C -9,9 C 19,5 km/h (3 Bft)
05.12.2010 00:04 -0,4 C 87 % 1005,5 hPa 0,0 l/m 20,8 km/h (4 Bft) SW 230 0 min 0 W/m -2,3 C -10,5 C 20,8 km/h (4 Bft)
05.12.2010 00:09 -0,4 C 87 % 1005,5 hPa 0,0 l/m 16,1 km/h (3 Bft) SW 235 0 min 0 W/m -2,3 C -8,1 C 16,1 km/h (3 Bft)
05.12.2010 00:14 -0,4 C 87 % 1005,5 hPa 0,0 l/m 22,5 km/h (4 Bft) SW 230 0 min 0 W/m -2,3 C -11,3 C 22,5 km/h (4 Bft)
05.12.2010 00:20 -0,4 C 87 % 1004,5 hPa 0,0 l/m 17,2 km/h (3 Bft) SW 230 0 min 0 W/m -2,3 C -8,7 C 17,2 km/h (3 Bft)
05.12.2010 00:25 -0,4 C 87 % 1004,5 hPa 0,0 l/m 14,8 km/h (3 Bft) SW 235 0 min 0 W/m -2,3 C -7,3 C 14,8 km/h (3 Bft)
05.12.2010 00:29 -0,4 C 87 % 1004,5 hPa 0,0 l/m 19,5 km/h (3 Bft) SW 215 0 min 0 W/m -2,3 C -9,9 C 19,5 km/h (3 Bft)
05.12.2010 00:34 -0,3 C 86 % 1004,5 hPa 0,0 l/m 18,5 km/h (3 Bft) SW 225 0 min 0 W/m -2,3 C -9,3 C 18,5 km/h (3 Bft)
05.12.2010 00:39 -0,3 C 86 % 1004,5 hPa 0,0 l/m 20,0 km/h (4 Bft) SW 220 0 min 0 W/m -2,3 C -10,0 C 20,0 km/h (4 Bft)
05.12.2010 00:44 -0,2 C 86 % 1004,5 hPa 0,0 l/m 16,5 km/h (3 Bft) SW 235 0 min 0 W/m -2,3 C -8,1 C 16,5 km/h (3 Bft)
05.12.2010 00:49 -0,2 C 86 % 1004,5 hPa 0,0 l/m 19,3 km/h (3 Bft) SW 220 0 min 0 W/m -2,3 C -9,6 C 19,3 km/h (3 Bft)
05.12.2010 00:54 -0,2 C 86 % 1004,5 hPa 0,0 l/m 13,5 km/h (3 Bft) SW 225 0 min 0 W/m -2,3 C -6,3 C 13,5 km/h (3 Bft)
05.12.2010 00:59 -0,2 C 86 % 1004,5 hPa 0,0 l/m 17,1 km/h (3 Bft) S-SW 210 0 min 0 W/m -2,3 C -8,4 C 17,1 km/h (3 Bft)
05.12.2010 01:04 -0,2 C 85 % 1004,5 hPa 0,0 l/m 17,3 km/h (3 Bft) SW 220 0 min 0 W/m -2,4 C -8,5 C 17,3 km/h (3 Bft)
05.12.2010 01:09 -0,2 C 85 % 1004,5 hPa 0,0 l/m 16,1 km/h (3 Bft) S-SW 205 0 min 0 W/m -2,4 C -7,9 C 16,1 km/h (3 Bft)
05.12.2010 01:14 -0,2 C 85 % 1004,5 hPa 0,0 l/m 15,4 km/h (3 Bft) S-SW 200 0 min 0 W/m -2,4 C -7,5 C 15,4 km/h (3 Bft)
05.12.2010 01:19 -0,2 C 85 % 1003,5 hPa 0,0 l/m 15,0 km/h (3 Bft) S-SW 200 0 min 0 W/m -2,4 C -7,2 C 15,0 km/h (3 Bft)
05.12.2010 01:24 -0,2 C 85 % 1003,5 hPa 0,0 l/m 18,3 km/h (3 Bft) SW 215 0 min 0 W/m -2,4 C -9,1 C 18,3 km/h (3 Bft)
05.12.2010 01:29 -0,2 C 85 % 1003,5 hPa 0,0 l/m 17,8 km/h (3 Bft) S-SW 195 0 min 0 W/m -2,4 C -8,8 C 17,8 km/h (3 Bft)
05.12.2010 01:35 -0,2 C 85 % 1003,5 hPa 0,0 l/m 17,0 km/h (3 Bft) S-SW 205 0 min 0 W/m -2,4 C -8,4 C 17,0 km/h (3 Bft)
05.12.2010 01:40 -0,2 C 85 % 1003,5 hPa 0,0 l/m 16,5 km/h (3 Bft) S-SW 205 0 min 0 W/m -2,4 C -8,1 C 16,5 km/h (3 Bft)
05.12.2010 01:44 -0,2 C 86 % 1003,5 hPa 0,0 l/m 20,9 km/h (4 Bft) SW 215 0 min 0 W/m -2,3 C -10,3 C 20,9 km/h (4 Bft)
05.12.2010 01:49 -0,3 C 86 % 1003,5 hPa 0,0 l/m 18,0 km/h (3 Bft) S-SW 200 0 min 0 W/m -2,3 C -9,0 C 18,0 km/h (3 Bft)
05.12.2010 01:54 -0,3 C 86 % 1003,5 hPa 0,0 l/m 15,5 km/h (3 Bft) S-SW 210 0 min 0 W/m -2,3 C -7,6 C 15,5 km/h (3 Bft)
05.12.2010 01:59 -0,3 C 86 % 1003,5 hPa 0,0 l/m 17,1 km/h (3 Bft) S-SW 195 0 min 0 W/m -2,3 C -8,6 C 17,1 km/h (3 Bft)
05.12.2010 02:05 -0,3 C 87 % 1002,5 hPa 0,0 l/m 14,2 km/h (3 Bft) S-SW 205 0 min 0 W/m -2,2 C -6,8 C 14,2 km/h (3 Bft)
05.12.2010 02:10 -0,4 C 87 % 1002,5 hPa 0,0 l/m 13,2 km/h (3 Bft) S-SW 195 0 min 0 W/m -2,3 C -6,3 C 13,2 km/h (3 Bft)
05.12.2010 02:14 -0,4 C 87 % 1002,5 hPa 0,0 l/m 17,8 km/h (3 Bft) S 190 0 min 0 W/m -2,3 C -9,1 C 17,8 km/h (3 Bft)
05.12.2010 02:19 -0,4 C 87 % 1002,5 hPa 0,0 l/m 12,4 km/h (2 Bft) S 180 0 min 0 W/m -2,3 C -5,8 C 12,4 km/h (2 Bft)
05.12.2010 02:24 -0,4 C 88 % 1002,5 hPa 0,0 l/m 14,1 km/h (3 Bft) S-SW 195 0 min 0 W/m -2,1 C -6,9 C 14,1 km/h (3 Bft)
05.12.2010 02:29 -0,3 C 88 % 1002,5 hPa 0,0 l/m 13,5 km/h (3 Bft) S 185 0 min 0 W/m -2,0 C -6,4 C 13,5 km/h (3 Bft)
05.12.2010 02:34 -0,3 C 88 % 1002,5 hPa 0,0 l/m 16,0 km/h (3 Bft) S 190 0 min 0 W/m -2,0 C -7,9 C 16,0 km/h (3 Bft)
05.12.2010 02:39 -0,3 C 88 % 1002,5 hPa 0,0 l/m 16,8 km/h (3 Bft) S-SW 195 0 min 0 W/m -2,0 C -8,4 C 16,8 km/h (3 Bft)
05.12.2010 02:44 -0,3 C 88 % 1002,5 hPa 0,0 l/m 16,3 km/h (3 Bft) S 185 0 min 0 W/m -2,0 C -8,1 C 16,3 km/h (3 Bft)
05.12.2010 02:50 -0,4 C 88 % 1002,5 hPa 0,0 l/m 12,1 km/h (2 Bft) S 185 0 min 0 W/m -2,1 C -5,5 C 12,1 km/h (2 Bft)
05.12.2010 02:55 -0,4 C 88 % 1001,5 hPa 0,0 l/m 19,0 km/h (3 Bft) S 190 0 min 0 W/m -2,1 C -9,7 C 19,0 km/h (3 Bft)
05.12.2010 02:59 -0,4 C 89 % 1001,5 hPa 0,0 l/m 15,1 km/h (3 Bft) S 180 0 min 0 W/m -2,0 C -7,5 C 15,1 km/h (3 Bft)
05.12.2010 03:04 -0,4 C 89 % 1001,5 hPa 0,0 l/m 13,1 km/h (3 Bft) S 180 0 min 0 W/m -2,0 C -6,2 C 13,1 km/h (3 Bft)
05.12.2010 03:09 -0,4 C 89 % 1001,5 hPa 0,0 l/m 14,1 km/h (3 Bft) S 175 0 min 0 W/m -2,0 C -6,9 C 14,1 km/h (3 Bft)
05.12.2010 03:14 -0,3 C 89 % 1001,5 hPa 0,0 l/m 15,1 km/h (3 Bft) S 180 0 min 0 W/m -1,9 C -7,4 C 15,1 km/h (3 Bft)
05.12.2010 03:20 -0,3 C 89 % 1001,5 hPa 0,0 l/m 13,1 km/h (3 Bft) S 175 0 min 0 W/m -1,9 C -6,1 C 13,1 km/h (3 Bft)
05.12.2010 03:25 -0,3 C 89 % 1001,5 hPa 0,0 l/m 17,6 km/h (3 Bft) S 175 0 min 0 W/m -1,9 C -8,8 C 17,6 km/h (3 Bft)
05.12.2010 03:29 -0,3 C 90 % 1000,5 hPa 0,0 l/m 11,8 km/h (2 Bft) S 175 0 min 0 W/m -1,7 C -5,2 C 11,8 km/h (2 Bft)
05.12.2010 03:34 -0,3 C 90 % 1000,5 hPa 0,0 l/m 14,3 km/h (3 Bft) S 170 0 min 0 W/m -1,7 C -6,9 C 14,3 km/h (3 Bft)
05.12.2010 03:39 -0,3 C 90 % 1000,5 hPa 0,0 l/m 14,3 km/h (3 Bft) S 180 0 min 0 W/m -1,7 C -6,9 C 14,3 km/h (3 Bft)
05.12.2010 03:44 -0,3 C 90 % 1000,5 hPa 0,0 l/m 18,1 km/h (3 Bft) S 175 0 min 0 W/m -1,7 C -9,1 C 18,1 km/h (3 Bft)
05.12.2010 03:49 -0,3 C 90 % 1000,5 hPa 0,0 l/m 15,1 km/h (3 Bft) S 180 0 min 0 W/m -1,7 C -7,4 C 15,1 km/h (3 Bft)
05.12.2010 03:54 -0,2 C 90 % 1000,5 hPa 0,0 l/m 17,9 km/h (3 Bft) S 175 0 min 0 W/m -1,6 C -8,9 C 17,9 km/h (3 Bft)
05.12.2010 03:59 -0,2 C 90 % 1000,5 hPa 0,0 l/m 13,7 km/h (3 Bft) S 170 0 min 0 W/m -1,6 C -6,4 C 13,7 km/h (3 Bft)
05.12.2010 04:04 -0,2 C 90 % 1000,5 hPa 0,0 l/m 12,8 km/h (3 Bft) S 175 0 min 0 W/m -1,6 C -5,8 C 12,8 km/h (3 Bft)
05.12.2010 04:09 -0,2 C 90 % 1000,5 hPa 0,0 l/m 17,1 km/h (3 Bft) S 180 0 min 0 W/m -1,6 C -8,4 C 17,1 km/h (3 Bft)
05.12.2010 04:14 -0,2 C 90 % 999,5 hPa 0,0 l/m 15,6 km/h (3 Bft) S 175 0 min 0 W/m -1,6 C -7,6 C 15,6 km/h (3 Bft)
05.12.2010 04:19 -0,2 C 90 % 999,5 hPa 0,0 l/m 11,9 km/h (2 Bft) S 170 0 min 0 W/m -1,6 C -5,2 C 11,9 km/h (2 Bft)
05.12.2010 04:24 -0,2 C 90 % 999,5 hPa 0,0 l/m 10,5 km/h (2 Bft) S 170 0 min 0 W/m -1,6 C -4,1 C 10,5 km/h (2 Bft)
05.12.2010 04:29 -0,2 C 90 % 999,5 hPa 0,0 l/m 11,5 km/h (2 Bft) S 170 0 min 0 W/m -1,6 C -4,9 C 11,5 km/h (2 Bft)
05.12.2010 04:35 -0,2 C 90 % 999,5 hPa 0,0 l/m 10,1 km/h (2 Bft) S 175 0 min 0 W/m -1,6 C -3,8 C 10,1 km/h (2 Bft)
05.12.2010 04:40 -0,2 C 90 % 999,5 hPa 0,0 l/m 13,6 km/h (3 Bft) S 175 0 min 0 W/m -1,6 C -6,3 C 13,6 km/h (3 Bft)
05.12.2010 04:44 0,0 C 90 % 999,5 hPa 0,0 l/m 13,6 km/h (3 Bft) S 170 0 min 0 W/m -1,4 C -6,1 C 13,6 km/h (3 Bft)
05.12.2010 04:49 0,0 C 90 % 999,5 hPa 0,0 l/m 13,8 km/h (3 Bft) S 170 0 min 0 W/m -1,4 C -6,2 C 13,8 km/h (3 Bft)
05.12.2010 04:54 0,0 C 91 % 999,5 hPa 0,0 l/m 11,9 km/h (2 Bft) S 170 0 min 0 W/m -1,3 C -4,9 C 11,9 km/h (2 Bft)
05.12.2010 04:59 0,1 C 91 % 998,5 hPa 0,0 l/m 17,1 km/h (3 Bft) S 170 0 min 0 W/m -1,2 C -8,1 C 17,1 km/h (3 Bft)
05.12.2010 05:05 0,1 C 91 % 998,5 hPa 0,0 l/m 14,3 km/h (3 Bft) S 175 0 min 0 W/m -1,2 C -6,4 C 14,3 km/h (3 Bft)
05.12.2010 05:10 0,1 C 91 % 998,5 hPa 0,0 l/m 16,5 km/h (3 Bft) S 180 0 min 0 W/m -1,2 C -7,7 C 16,5 km/h (3 Bft)
05.12.2010 05:14 0,1 C 91 % 998,5 hPa 0,0 l/m 13,1 km/h (3 Bft) S 175 0 min 0 W/m -1,2 C -5,7 C 13,1 km/h (3 Bft)
05.12.2010 05:19 0,1 C 91 % 998,5 hPa 0,0 l/m 14,1 km/h (3 Bft) S 175 0 min 0 W/m -1,2 C -6,3 C 14,1 km/h (3 Bft)
05.12.2010 05:24 0,1 C 91 % 998,5 hPa 0,0 l/m 17,2 km/h (3 Bft) S 170 0 min 0 W/m -1,2 C -8,1 C 17,2 km/h (3 Bft)
05.12.2010 05:29 0,1 C 91 % 998,5 hPa 0,0 l/m 14,6 km/h (3 Bft) S 175 0 min 0 W/m -1,2 C -6,6 C 14,6 km/h (3 Bft)
05.12.2010 05:34 0,1 C 91 % 998,5 hPa 0,0 l/m 12,8 km/h (3 Bft) S 180 0 min 0 W/m -1,2 C -5,4 C 12,8 km/h (3 Bft)
05.12.2010 05:39 0,2 C 91 % 998,5 hPa 0,0 l/m 13,3 km/h (3 Bft) S 180 0 min 0 W/m -1,1 C -5,7 C 13,3 km/h (3 Bft)
05.12.2010 05:45 0,1 C 91 % 997,5 hPa 0,0 l/m 11,8 km/h (2 Bft) S 170 0 min 0 W/m -1,2 C -4,7 C 11,8 km/h (2 Bft)
05.12.2010 05:50 0,1 C 91 % 997,5 hPa 0,0 l/m 14,6 km/h (3 Bft) S 185 0 min 0 W/m -1,2 C -6,6 C 14,6 km/h (3 Bft)
05.12.2010 05:54 0,2 C 91 % 997,5 hPa 0,0 l/m 12,6 km/h (3 Bft) S 170 0 min 0 W/m -1,1 C -5,2 C 12,6 km/h (3 Bft)
05.12.2010 05:59 0,2 C 91 % 997,5 hPa 0,0 l/m 14,3 km/h (3 Bft) S 170 0 min 0 W/m -1,1 C -6,3 C 14,3 km/h (3 Bft)
05.12.2010 06:04 0,2 C 91 % 997,5 hPa 0,0 l/m 10,1 km/h (2 Bft) S-SW 195 0 min 0 W/m -1,1 C -3,3 C 10,1 km/h (2 Bft)
05.12.2010 06:09 0,2 C 91 % 997,5 hPa 0,0 l/m 7,2 km/h (2 Bft) S-SO 165 0 min 0 W/m -1,1 C -0,6 C 7,2 km/h (2 Bft)
05.12.2010 06:15 0,3 C 91 % 997,5 hPa 0,0 l/m 10,3 km/h (2 Bft) S 170 0 min 0 W/m -1,0 C -3,4 C 10,3 km/h (2 Bft)
05.12.2010 06:20 0,3 C 91 % 997,5 hPa 0,0 l/m 12,4 km/h (2 Bft) S 175 0 min 0 W/m -1,0 C -4,9 C 12,4 km/h (2 Bft)
05.12.2010 06:24 0,3 C 91 % 997,5 hPa 0,0 l/m 6,5 km/h (2 Bft) S 185 0 min 0 W/m -1,0 C 0,2 C 6,5 km/h (2 Bft)
05.12.2010 06:29 0,3 C 91 % 997,5 hPa 0,0 l/m 8,9 km/h (2 Bft) SW 220 0 min 0 W/m -1,0 C -2,2 C 8,9 km/h (2 Bft)
05.12.2010 06:34 0,3 C 91 % 996,5 hPa 0,0 l/m 10,1 km/h (2 Bft) S-SW 195 0 min 0 W/m -1,0 C -3,2 C 10,1 km/h (2 Bft)
05.12.2010 06:39 0,4 C 92 % 996,5 hPa 0,0 l/m 15,3 km/h (3 Bft) S-SW 195 0 min 0 W/m -0,7 C -6,7 C 15,3 km/h (3 Bft)
05.12.2010 06:44 0,5 C 92 % 996,5 hPa 0,0 l/m 10,8 km/h (2 Bft) S-SW 210 0 min 0 W/m -0,6 C -3,5 C 10,8 km/h (2 Bft)
05.12.2010 06:50 0,6 C 92 % 996,5 hPa 0,0 l/m 22,3 km/h (4 Bft) SW 215 0 min 0 W/m -0,5 C -9,9 C 22,3 km/h (4 Bft)
05.12.2010 06:55 0,6 C 92 % 996,5 hPa 0,0 l/m 16,7 km/h (3 Bft) S-SW 200 0 min 0 W/m -0,5 C -7,2 C 16,7 km/h (3 Bft)
05.12.2010 06:59 0,7 C 92 % 996,5 hPa 0,0 l/m 15,5 km/h (3 Bft) S-SW 210 0 min 0 W/m -0,4 C -6,4 C 15,5 km/h (3 Bft)
05.12.2010 07:04 0,8 C 92 % 996,5 hPa 0,0 l/m 11,8 km/h (2 Bft) SW 220 0 min 0 W/m -0,3 C -3,9 C 11,8 km/h (2 Bft)
05.12.2010 07:09 0,8 C 92 % 996,5 hPa 0,0 l/m 21,5 km/h (4 Bft) S-SW 205 0 min 0 W/m -0,3 C -9,3 C 21,5 km/h (4 Bft)
05.12.2010 07:14 0,8 C 92 % 996,5 hPa 0,0 l/m 12,3 km/h (2 Bft) S-SW 210 0 min 0 W/m -0,3 C -4,3 C 12,3 km/h (2 Bft)
05.12.2010 07:20 0,9 C 92 % 996,5 hPa 0,0 l/m 16,1 km/h (3 Bft) SW 220 0 min 0 W/m -0,2 C -6,5 C 16,1 km/h (3 Bft)
05.12.2010 07:25 0,9 C 92 % 996,5 hPa 0,0 l/m 16,3 km/h (3 Bft) SW 230 0 min 0 W/m -0,2 C -6,6 C 16,3 km/h (3 Bft)
05.12.2010 07:29 0,9 C 92 % 996,5 hPa 0,0 l/m 14,5 km/h (3 Bft) W-SW 240 0 min 0 W/m -0,2 C -5,6 C 14,5 km/h (3 Bft)
05.12.2010 07:34 0,9 C 93 % 995,5 hPa 0,0 l/m 21,5 km/h (4 Bft) SW 225 0 min 0 W/m -0,1 C -9,1 C 21,5 km/h (4 Bft)
05.12.2010 07:39 0,9 C 93 % 995,5 hPa 0,0 l/m 14,2 km/h (3 Bft) SW 235 0 min 0 W/m -0,1 C -5,4 C 14,2 km/h (3 Bft)
05.12.2010 07:44 0,9 C 93 % 995,5 hPa 0,0 l/m 24,5 km/h (4 Bft) W-SW 240 0 min 0 W/m -0,1 C -10,3 C 24,5 km/h (4 Bft)
05.12.2010 07:49 0,9 C 93 % 995,5 hPa 0,0 l/m 17,1 km/h (3 Bft) SW 235 0 min 0 W/m -0,1 C -7,1 C 17,1 km/h (3 Bft)
05.12.2010 07:54 0,9 C 93 % 995,5 hPa 0,0 l/m 18,1 km/h (3 Bft) SW 235 0 min 0 W/m -0,1 C -7,6 C 18,1 km/h (3 Bft)
05.12.2010 08:00 0,9 C 93 % 995,5 hPa 0,0 l/m 17,1 km/h (3 Bft) W-SW 240 0 min 0 W/m -0,1 C -7,1 C 17,1 km/h (3 Bft)
05.12.2010 08:04 0,9 C 93 % 995,5 hPa 0,0 l/m 20,8 km/h (4 Bft) W-SW 240 0 min 0 W/m -0,1 C -8,8 C 20,8 km/h (4 Bft)
05.12.2010 08:09 1,0 C 93 % 995,5 hPa 0,0 l/m 21,8 km/h (4 Bft) W-SW 245 0 min 0 W/m -0,0 C -9,1 C 21,8 km/h (4 Bft)
05.12.2010 08:14 1,0 C 93 % 995,5 hPa 0,0 l/m 22,5 km/h (4 Bft) W-SW 240 0 min 0 W/m -0,0 C -9,4 C 22,5 km/h (4 Bft)
05.12.2010 08:19 1,0 C 93 % 995,5 hPa 0,0 l/m 18,7 km/h (3 Bft) W-SW 240 0 min 0 W/m -0,0 C -7,7 C 18,7 km/h (3 Bft)
05.12.2010 08:25 1,1 C 94 % 995,5 hPa 0,0 l/m 18,7 km/h (3 Bft) W-SW 240 0 min 0 W/m 0,2 C -7,6 C 18,7 km/h (3 Bft)
05.12.2010 08:30 1,1 C 94 % 995,5 hPa 0,0 l/m 25,3 km/h (4 Bft) W-SW 240 0 min 0 W/m 0,2 C -10,3 C 25,3 km/h (4 Bft)
05.12.2010 08:34 1,1 C 94 % 995,5 hPa 0,0 l/m 29,8 km/h (5 Bft) W-SW 250 0 min 0 W/m 0,2 C -11,8 C 29,8 km/h (5 Bft)
05.12.2010 08:39 1,1 C 94 % 995,5 hPa 0,0 l/m 26,0 km/h (4 Bft) W-SW 240 0 min 0 W/m 0,2 C -10,6 C 26,0 km/h (4 Bft)
05.12.2010 08:44 1,1 C 94 % 994,5 hPa 0,0 l/m 27,5 km/h (5 Bft) W-SW 250 0 min 0 W/m 0,2 C -11,1 C 27,5 km/h (5 Bft)
05.12.2010 08:49 1,1 C 94 % 994,5 hPa 0,0 l/m 27,5 km/h (5 Bft) W-SW 250 0 min 0 W/m 0,2 C -11,1 C 27,5 km/h (5 Bft)
05.12.2010 08:54 1,2 C 94 % 994,5 hPa 0,0 l/m 30,5 km/h (5 Bft) W-SW 245 0 min 0 W/m 0,3 C -11,9 C 30,5 km/h (5 Bft)
05.12.2010 08:59 1,2 C 94 % 994,5 hPa 0,0 l/m 27,6 km/h (5 Bft) W-SW 240 0 min 0 W/m 0,3 C -11,0 C 27,6 km/h (5 Bft)
05.12.2010 09:04 1,2 C 94 % 994,5 hPa 0,0 l/m 28,8 km/h (5 Bft) W-SW 245 0 min 0 W/m 0,3 C -11,4 C 28,8 km/h (5 Bft)
05.12.2010 09:09 1,2 C 94 % 994,5 hPa 0,0 l/m 28,0 km/h (5 Bft) SW 235 0 min 0 W/m 0,3 C -11,1 C 28,0 km/h (5 Bft)
05.12.2010 09:14 1,2 C 94 % 994,5 hPa 0,0 l/m 26,8 km/h (4 Bft) W-SW 240 0 min 0 W/m 0,3 C -10,7 C 26,8 km/h (4 Bft)
05.12.2010 09:19 1,2 C 94 % 994,5 hPa 0,0 l/m 26,8 km/h (4 Bft) W-SW 240 0 min 0 W/m 0,3 C -10,7 C 26,8 km/h (4 Bft)
05.12.2010 09:24 1,3 C 94 % 994,5 hPa 0,0 l/m 20,0 km/h (4 Bft) SW 230 0 min 0 W/m 0,4 C -8,0 C 20,0 km/h (4 Bft)
05.12.2010 09:30 1,2 C 95 % 994,5 hPa 0,0 l/m 28,6 km/h (5 Bft) W-SW 245 0 min 0 W/m 0,5 C -11,3 C 28,6 km/h (5 Bft)
05.12.2010 09:35 1,3 C 95 % 994,5 hPa 0,0 l/m 29,0 km/h (5 Bft) W-SW 240 0 min 0 W/m 0,6 C -11,3 C 29,0 km/h (5 Bft)
05.12.2010 09:39 1,4 C 95 % 994,5 hPa 0,0 l/m 31,7 km/h (5 Bft) W-SW 245 0 min 0 W/m 0,7 C -11,9 C 31,7 km/h (5 Bft)
05.12.2010 09:44 1,4 C 95 % 994,5 hPa 0,0 l/m 28,9 km/h (5 Bft) W-SW 245 0 min 0 W/m 0,7 C -11,1 C 28,9 km/h (5 Bft)
05.12.2010 09:49 1,5 C 95 % 994,5 hPa 0,0 l/m 29,8 km/h (5 Bft) W-SW 245 0 min 0 W/m 0,8 C -11,2 C 29,8 km/h (5 Bft)
05.12.2010 09:54 1,5 C 95 % 994,5 hPa 0,0 l/m 28,8 km/h (5 Bft) W-SW 250 0 min 0 W/m 0,8 C -10,9 C 28,8 km/h (5 Bft)
05.12.2010 09:59 1,6 C 95 % 994,5 hPa 0,0 l/m 34,4 km/h (5 Bft) W-SW 250 0 min 0 W/m 0,9 C -12,3 C 34,4 km/h (5 Bft)
05.12.2010 10:04 1,6 C 95 % 994,5 hPa 0,0 l/m 32,7 km/h (5 Bft) W-SW 245 0 min 0 W/m 0,9 C -11,9 C 32,7 km/h (5 Bft)
05.12.2010 10:09 1,7 C 95 % 994,5 hPa 0,0 l/m 27,5 km/h (5 Bft) W-SW 250 0 min 0 W/m 1,0 C -10,3 C 27,5 km/h (5 Bft)
05.12.2010 10:14 1,7 C 95 % 994,5 hPa 0,0 l/m 29,1 km/h (5 Bft) W-SW 250 0 min 0 W/m 1,0 C -10,8 C 29,1 km/h (5 Bft)
05.12.2010 10:19 1,7 C 95 % 994,5 hPa 0,0 l/m 35,3 km/h (5 Bft) W-SW 255 0 min 0 W/m 1,0 C -12,4 C 35,3 km/h (5 Bft)
05.12.2010 10:24 1,6 C 95 % 994,5 hPa 0,0 l/m 30,8 km/h (5 Bft) W-SW 250 0 min 0 W/m 0,9 C -11,4 C 30,8 km/h (5 Bft)
05.12.2010 10:29 1,7 C 95 % 994,5 hPa 0,0 l/m 33,7 km/h (5 Bft) W 260 0 min 0 W/m 1,0 C -12,0 C 33,7 km/h (5 Bft)
05.12.2010 10:35 1,8 C 95 % 994,5 hPa 0,0 l/m 33,6 km/h (5 Bft) W-SW 255 0 min 0 W/m 1,1 C -11,8 C 33,6 km/h (5 Bft)
05.12.2010 10:40 1,9 C 95 % 994,5 hPa 0,0 l/m 33,6 km/h (5 Bft) W-SW 255 0 min 0 W/m 1,2 C -11,7 C 33,6 km/h (5 Bft)
05.12.2010 10:44 1,9 C 95 % 994,5 hPa 0,0 l/m 34,5 km/h (5 Bft) W 260 0 min 0 W/m 1,2 C -11,9 C 34,5 km/h (5 Bft)
05.12.2010 10:49 2,0 C 95 % 994,5 hPa 0,0 l/m 30,0 km/h (5 Bft) W 265 0 min 0 W/m 1,3 C -10,6 C 30,0 km/h (5 Bft)
05.12.2010 10:54 2,0 C 95 % 994,5 hPa 0,0 l/m 35,4 km/h (5 Bft) W 260 0 min 0 W/m 1,3 C -12,0 C 35,4 km/h (5 Bft)
05.12.2010 10:59 2,0 C 95 % 994,5 hPa 0,0 l/m 33,8 km/h (5 Bft) W 260 0 min 0 W/m 1,3 C -11,6 C 33,8 km/h (5 Bft)
05.12.2010 11:04 2,1 C 95 % 994,5 hPa 0,0 l/m 29,9 km/h (5 Bft) W-SW 255 0 min 0 W/m 1,4 C -10,4 C 29,9 km/h (5 Bft)
05.12.2010 11:09 2,0 C 95 % 994,5 hPa 0,0 l/m 33,2 km/h (5 Bft) W-SW 255 0 min 0 W/m 1,3 C -11,5 C 33,2 km/h (5 Bft)
05.12.2010 11:14 2,0 C 95 % 994,5 hPa 0,0 l/m 32,5 km/h (5 Bft) W-SW 255 0 min 0 W/m 1,3 C -11,3 C 32,5 km/h (5 Bft)
05.12.2010 11:19 2,1 C 95 % 994,5 hPa 0,0 l/m 32,1 km/h (5 Bft) W-SW 255 0 min 0 W/m 1,4 C -11,0 C 32,1 km/h (5 Bft)
05.12.2010 11:24 2,1 C 95 % 994,5 hPa 0,0 l/m 37,6 km/h (5 Bft) W-SW 250 0 min 0 W/m 1,4 C -12,3 C 37,6 km/h (5 Bft)
05.12.2010 11:30 2,1 C 95 % 994,5 hPa 0,0 l/m 29,6 km/h (5 Bft) W-SW 255 0 min 0 W/m 1,4 C -10,3 C 29,6 km/h (5 Bft)
05.12.2010 11:35 2,1 C 95 % 994,5 hPa 0,0 l/m 27,2 km/h (5 Bft) W 260 0 min 0 W/m 1,4 C -9,6 C 27,2 km/h (5 Bft)
05.12.2010 11:39 2,1 C 95 % 994,5 hPa 0,0 l/m 35,9 km/h (5 Bft) W 260 0 min 0 W/m 1,4 C -12,0 C 35,9 km/h (5 Bft)
05.12.2010 11:44 2,1 C 95 % 994,5 hPa 0,0 l/m 31,7 km/h (5 Bft) W-SW 250 0 min 0 W/m 1,4 C -10,9 C 31,7 km/h (5 Bft)
05.12.2010 11:49 2,1 C 95 % 994,5 hPa 0,0 l/m 30,5 km/h (5 Bft) W-SW 250 0 min 0 W/m 1,4 C -10,6 C 30,5 km/h (5 Bft)
05.12.2010 11:54 2,1 C 95 % 994,5 hPa 0,0 l/m 28,6 km/h (5 Bft) W-SW 250 0 min 0 W/m 1,4 C -10,0 C 28,6 km/h (5 Bft)
05.12.2010 11:59 2,2 C 95 % 994,5 hPa 0,0 l/m 26,0 km/h (4 Bft) W-SW 250 0 min 0 W/m 1,5 C -9,1 C 26,0 km/h (4 Bft)
05.12.2010 12:04 2,1 C 95 % 994,5 hPa 0,0 l/m 31,6 km/h (5 Bft) W-SW 255 0 min 0 W/m 1,4 C -10,9 C 31,6 km/h (5 Bft)
05.12.2010 12:09 2,1 C 95 % 994,5 hPa 0,0 l/m 31,1 km/h (5 Bft) W-SW 250 0 min 0 W/m 1,4 C -10,8 C 31,1 km/h (5 Bft)
05.12.2010 12:14 2,1 C 95 % 994,5 hPa 0,0 l/m 28,7 km/h (5 Bft) W-SW 250 0 min 0 W/m 1,4 C -10,1 C 28,7 km/h (5 Bft)
05.12.2010 12:19 2,2 C 95 % 994,5 hPa 0,0 l/m 30,4 km/h (5 Bft) W-SW 250 0 min 0 W/m 1,5 C -10,4 C 30,4 km/h (5 Bft)
05.12.2010 12:24 2,2 C 95 % 994,5 hPa 0,0 l/m 29,8 km/h (5 Bft) W-SW 250 0 min 0 W/m 1,5 C -10,3 C 29,8 km/h (5 Bft)
05.12.2010 12:30 2,2 C 95 % 994,5 hPa 0,0 l/m 29,0 km/h (5 Bft) W-SW 255 0 min 0 W/m 1,5 C -10,0 C 29,0 km/h (5 Bft)
05.12.2010 12:35 2,1 C 95 % 994,5 hPa 0,0 l/m 28,1 km/h (5 Bft) W-SW 250 0 min 0 W/m 1,4 C -9,9 C 28,1 km/h (5 Bft)
05.12.2010 12:39 2,1 C 95 % 994,5 hPa 0,0 l/m 28,6 km/h (5 Bft) W-SW 245 0 min 0 W/m 1,4 C -10,0 C 28,6 km/h (5 Bft)
05.12.2010 12:44 2,1 C 95 % 994,5 hPa 0,0 l/m 29,6 km/h (5 Bft) W-SW 255 0 min 0 W/m 1,4 C -10,3 C 29,6 km/h (5 Bft)
05.12.2010 12:49 2,1 C 95 % 994,5 hPa 0,0 l/m 23,0 km/h (4 Bft) W 260 0 min 0 W/m 1,4 C -8,1 C 23,0 km/h (4 Bft)
05.12.2010 12:54 2,1 C 95 % 994,5 hPa 0,0 l/m 27,6 km/h (5 Bft) W-SW 250 0 min 0 W/m 1,4 C -9,7 C 27,6 km/h (5 Bft)
05.12.2010 12:59 2,2 C 95 % 994,5 hPa 0,0 l/m 29,6 km/h (5 Bft) W-SW 255 0 min 0 W/m 1,5 C -10,2 C 29,6 km/h (5 Bft)
05.12.2010 13:04 2,2 C 95 % 993,5 hPa 0,0 l/m 31,8 km/h (5 Bft) W 260 0 min 0 W/m 1,5 C -10,8 C 31,8 km/h (5 Bft)
05.12.2010 13:09 2,3 C 95 % 993,5 hPa 0,0 l/m 31,8 km/h (5 Bft) W-SW 250 0 min 0 W/m 1,6 C -10,7 C 31,8 km/h (5 Bft)
05.12.2010 13:14 2,3 C 95 % 993,5 hPa 0,0 l/m 26,3 km/h (4 Bft) W 260 0 min 0 W/m 1,6 C -9,0 C 26,3 km/h (4 Bft)
05.12.2010 13:19 2,3 C 95 % 993,5 hPa 0,0 l/m 24,1 km/h (4 Bft) W-SW 255 0 min 0 W/m 1,6 C -8,3 C 24,1 km/h (4 Bft)
05.12.2010 13:24 2,3 C 95 % 993,5 hPa 0,0 l/m 23,2 km/h (4 Bft) W 265 0 min 0 W/m 1,6 C -8,0 C 23,2 km/h (4 Bft)
05.12.2010 13:30 2,4 C 95 % 993,5 hPa 0,0 l/m 21,7 km/h (4 Bft) W 260 0 min 0 W/m 1,7 C -7,2 C 21,7 km/h (4 Bft)
05.12.2010 13:35 2,4 C 95 % 993,5 hPa 0,0 l/m 18,4 km/h (3 Bft) W 265 0 min 0 W/m 1,7 C -5,8 C 18,4 km/h (3 Bft)
05.12.2010 13:39 2,5 C 95 % 993,5 hPa 0,0 l/m 15,1 km/h (3 Bft) W-SW 255 0 min 0 W/m 1,8 C -4,0 C 15,1 km/h (3 Bft)
05.12.2010 13:44 2,5 C 95 % 993,5 hPa 0,0 l/m 15,3 km/h (3 Bft) W 270 0 min 0 W/m 1,8 C -4,1 C 15,3 km/h (3 Bft)
05.12.2010 13:49 2,4 C 94 % 993,5 hPa 0,0 l/m 18,9 km/h (3 Bft) W 265 0 min 0 W/m 1,5 C -6,0 C 18,9 km/h (3 Bft)
05.12.2010 13:54 2,3 C 94 % 993,5 hPa 0,0 l/m 18,9 km/h (3 Bft) W 265 0 min 0 W/m 1,4 C -6,2 C 18,9 km/h (3 Bft)
05.12.2010 14:00 2,3 C 94 % 993,5 hPa 0,0 l/m 13,5 km/h (3 Bft) W-NW 285 0 min 0 W/m 1,4 C -3,3 C 13,5 km/h (3 Bft)
05.12.2010 14:04 2,3 C 94 % 994,5 hPa 0,0 l/m 16,0 km/h (3 Bft) W 260 0 min 0 W/m 1,4 C -4,7 C 16,0 km/h (3 Bft)
05.12.2010 14:09 2,3 C 94 % 994,5 hPa 0,0 l/m 20,8 km/h (4 Bft) W-NW 290 0 min 0 W/m 1,4 C -7,0 C 20,8 km/h (4 Bft)
05.12.2010 14:14 2,4 C 94 % 994,5 hPa 0,0 l/m 27,0 km/h (5 Bft) W 280 0 min 0 W/m 1,5 C -9,1 C 27,0 km/h (5 Bft)
05.12.2010 14:19 2,5 C 94 % 994,5 hPa 0,0 l/m 29,3 km/h (5 Bft) W 260 0 min 0 W/m 1,6 C -9,7 C 29,3 km/h (5 Bft)
05.12.2010 14:25 2,4 C 94 % 994,5 hPa 0,0 l/m 28,9 km/h (5 Bft) W 265 0 min 0 W/m 1,5 C -9,7 C 28,9 km/h (5 Bft)
05.12.2010 14:30 2,4 C 94 % 994,5 hPa 0,0 l/m 28,3 km/h (5 Bft) W 270 0 min 0 W/m 1,5 C -9,5 C 28,3 km/h (5 Bft)
05.12.2010 14:34 2,5 C 94 % 994,5 hPa 0,0 l/m 23,4 km/h (4 Bft) W-SW 250 0 min 0 W/m 1,6 C -7,8 C 23,4 km/h (4 Bft)
05.12.2010 14:39 2,5 C 94 % 994,5 hPa 0,0 l/m 23,2 km/h (4 Bft) W 260 0 min 0 W/m 1,6 C -7,7 C 23,2 km/h (4 Bft)
05.12.2010 14:44 2,5 C 93 % 994,5 hPa 0,0 l/m 23,5 km/h (4 Bft) W 260 0 min 0 W/m 1,5 C -7,8 C 23,5 km/h (4 Bft)
05.12.2010 14:49 2,4 C 93 % 994,5 hPa 0,0 l/m 24,0 km/h (4 Bft) W 265 0 min 0 W/m 1,4 C -8,1 C 24,0 km/h (4 Bft)
05.12.2010 14:54 2,4 C 93 % 994,5 hPa 0,0 l/m 21,8 km/h (4 Bft) W 270 0 min 0 W/m 1,4 C -7,3 C 21,8 km/h (4 Bft)
05.12.2010 15:00 2,4 C 93 % 994,5 hPa 0,0 l/m 24,6 km/h (4 Bft) W 265 0 min 0 W/m 1,4 C -8,3 C 24,6 km/h (4 Bft)
05.12.2010 15:04 2,3 C 93 % 994,5 hPa 0,0 l/m 25,0 km/h (4 Bft) W 265 0 min 0 W/m 1,3 C -8,6 C 25,0 km/h (4 Bft)
05.12.2010 15:09 2,3 C 93 % 994,5 hPa 0,0 l/m 25,0 km/h (4 Bft) W 265 0 min 0 W/m 1,3 C -8,6 C 25,0 km/h (4 Bft)
05.12.2010 15:14 2,3 C 93 % 994,5 hPa 0,0 l/m 25,0 km/h (4 Bft) W 265 0 min 0 W/m 1,3 C -8,6 C 25,0 km/h (4 Bft)
05.12.2010 15:19 2,3 C 93 % 994,5 hPa 0,0 l/m 26,7 km/h (4 Bft) W-SW 255 0 min 0 W/m 1,3 C -9,2 C 26,7 km/h (4 Bft)
05.12.2010 15:25 2,3 C 93 % 994,5 hPa 0,0 l/m 26,7 km/h (4 Bft) W-SW 255 0 min 0 W/m 1,3 C -9,2 C 26,7 km/h (4 Bft)
05.12.2010 15:30 2,3 C 93 % 994,5 hPa 0,0 l/m 26,7 km/h (4 Bft) W-SW 255 0 min 0 W/m 1,3 C -9,2 C 26,7 km/h (4 Bft)
05.12.2010 15:34 2,3 C 93 % 994,5 hPa 0,0 l/m 26,7 km/h (4 Bft) W-SW 255 0 min 0 W/m 1,3 C -9,2 C 26,7 km/h (4 Bft)
05.12.2010 15:39 2,3 C 93 % 994,5 hPa 0,0 l/m 26,7 km/h (4 Bft) W-SW 255 0 min 0 W/m 1,3 C -9,2 C 26,7 km/h (4 Bft)
05.12.2010 15:44 2,3 C 93 % 994,5 hPa 0,0 l/m 23,5 km/h (4 Bft) W 260 0 min 0 W/m 1,3 C -8,1 C 23,5 km/h (4 Bft)
05.12.2010 15:49 2,3 C 93 % 994,5 hPa 0,0 l/m 23,5 km/h (4 Bft) W 260 0 min 0 W/m 1,3 C -8,1 C 23,5 km/h (4 Bft)
05.12.2010 15:54 2,3 C 93 % 994,5 hPa 0,0 l/m 23,5 km/h (4 Bft) W 260 0 min 0 W/m 1,3 C -8,1 C 23,5 km/h (4 Bft)
05.12.2010 16:00 2,3 C 93 % 994,5 hPa 0,0 l/m 23,5 km/h (4 Bft) W 260 0 min 0 W/m 1,3 C -8,1 C 23,5 km/h (4 Bft)
05.12.2010 16:04 2,3 C 93 % 994,5 hPa 0,0 l/m 23,5 km/h (4 Bft) W 260 0 min 0 W/m 1,3 C -8,1 C 23,5 km/h (4 Bft)
05.12.2010 16:09 2,2 C 93 % 994,5 hPa 0,0 l/m 22,8 km/h (4 Bft) W-SW 255 0 min 0 W/m 1,2 C -7,9 C 22,8 km/h (4 Bft)
05.12.2010 16:14 2,2 C 93 % 994,5 hPa 0,0 l/m 22,8 km/h (4 Bft) W-SW 255 0 min 0 W/m 1,2 C -7,9 C 22,8 km/h (4 Bft)
05.12.2010 16:20 2,2 C 93 % 994,5 hPa 0,0 l/m 22,8 km/h (4 Bft) W-SW 255 0 min 0 W/m 1,2 C -7,9 C 22,8 km/h (4 Bft)
05.12.2010 16:25 2,2 C 93 % 994,5 hPa 0,0 l/m 22,8 km/h (4 Bft) W-SW 255 0 min 0 W/m 1,2 C -7,9 C 22,8 km/h (4 Bft)
05.12.2010 16:29 2,2 C 93 % 994,5 hPa 0,0 l/m 22,8 km/h (4 Bft) W-SW 255 0 min 0 W/m 1,2 C -7,9 C 22,8 km/h (4 Bft)
05.12.2010 16:34 2,3 C 93 % 994,5 hPa 0,0 l/m 23,6 km/h (4 Bft) W 260 0 min 0 W/m 1,3 C -8,1 C 23,6 km/h (4 Bft)
05.12.2010 16:39 2,3 C 93 % 994,5 hPa 0,0 l/m 23,6 km/h (4 Bft) W 260 0 min 0 W/m 1,3 C -8,1 C 23,6 km/h (4 Bft)
05.12.2010 16:44 2,3 C 93 % 994,5 hPa 0,0 l/m 23,6 km/h (4 Bft) W 260 0 min 0 W/m 1,3 C -8,1 C 23,6 km/h (4 Bft)
05.12.2010 16:49 2,2 C 93 % 994,5 hPa 0,0 l/m 23,6 km/h (4 Bft) W 260 0 min 0 W/m 1,2 C -8,2 C 23,6 km/h (4 Bft)
05.12.2010 16:55 2,2 C 93 % 994,5 hPa 0,0 l/m 29,0 km/h (5 Bft) W 260 0 min 0 W/m 1,2 C -10,0 C 29,0 km/h (5 Bft)
05.12.2010 16:59 2,3 C 93 % 994,5 hPa 0,0 l/m 29,0 km/h (5 Bft) W 260 0 min 0 W/m 1,3 C -9,9 C 29,0 km/h (5 Bft)
05.12.2010 17:04 2,2 C 93 % 994,5 hPa 0,0 l/m 29,0 km/h (5 Bft) W 260 0 min 0 W/m 1,2 C -10,0 C 29,0 km/h (5 Bft)
05.12.2010 17:09 2,2 C 93 % 994,5 hPa 0,0 l/m 26,3 km/h (4 Bft) W 265 0 min 0 W/m 1,2 C -9,2 C 26,3 km/h (4 Bft)
05.12.2010 17:15 2,2 C 93 % 994,5 hPa 0,0 l/m 26,3 km/h (4 Bft) W 265 0 min 0 W/m 1,2 C -9,2 C 26,3 km/h (4 Bft)
05.12.2010 17:20 2,3 C 93 % 994,5 hPa 0,0 l/m 26,3 km/h (4 Bft) W 265 0 min 0 W/m 1,3 C -9,0 C 26,3 km/h (4 Bft)
05.12.2010 17:24 2,3 C 93 % 994,5 hPa 0,0 l/m 26,3 km/h (4 Bft) W 265 0 min 0 W/m 1,3 C -9,0 C 26,3 km/h (4 Bft)
05.12.2010 17:29 2,2 C 93 % 994,5 hPa 0,0 l/m 25,6 km/h (4 Bft) W-SW 250 0 min 0 W/m 1,2 C -8,9 C 25,6 km/h (4 Bft)
05.12.2010 17:34 2,2 C 93 % 994,5 hPa 0,0 l/m 25,6 km/h (4 Bft) W-SW 250 0 min 0 W/m 1,2 C -8,9 C 25,6 km/h (4 Bft)
05.12.2010 17:39 2,2 C 93 % 994,5 hPa 0,0 l/m 25,6 km/h (4 Bft) W-SW 250 0 min 0 W/m 1,2 C -8,9 C 25,6 km/h (4 Bft)
05.12.2010 17:45 2,2 C 93 % 994,5 hPa 0,0 l/m 25,6 km/h (4 Bft) W-SW 250 0 min 0 W/m 1,2 C -8,9 C 25,6 km/h (4 Bft)
05.12.2010 17:50 2,3 C 93 % 994,5 hPa 0,0 l/m 22,8 km/h (4 Bft) W 265 0 min 0 W/m 1,3 C -7,8 C 22,8 km/h (4 Bft)
05.12.2010 17:54 2,3 C 93 % 994,5 hPa 0,0 l/m 25,1 km/h (4 Bft) W 270 0 min 0 W/m 1,3 C -8,6 C 25,1 km/h (4 Bft)
05.12.2010 17:59 2,2 C 93 % 994,5 hPa 0,0 l/m 24,0 km/h (4 Bft) W 265 0 min 0 W/m 1,2 C -8,4 C 24,0 km/h (4 Bft)
05.12.2010 18:05 2,2 C 93 % 995,5 hPa 0,0 l/m 24,2 km/h (4 Bft) W 260 0 min 0 W/m 1,2 C -8,5 C 24,2 km/h (4 Bft)
05.12.2010 18:10 2,3 C 93 % 995,5 hPa 0,0 l/m 24,3 km/h (4 Bft) W-SW 255 0 min 0 W/m 1,3 C -8,4 C 24,3 km/h (4 Bft)
05.12.2010 18:14 2,2 C 93 % 995,5 hPa 0,0 l/m 28,3 km/h (5 Bft) W 275 0 min 0 W/m 1,2 C -9,8 C 28,3 km/h (5 Bft)
05.12.2010 18:19 2,2 C 93 % 995,5 hPa 0,0 l/m 25,5 km/h (4 Bft) W 270 0 min 0 W/m 1,2 C -8,9 C 25,5 km/h (4 Bft)
05.12.2010 18:24 2,2 C 93 % 995,5 hPa 0,0 l/m 22,1 km/h (4 Bft) W 270 0 min 0 W/m 1,2 C -7,7 C 22,1 km/h (4 Bft)
05.12.2010 18:29 2,2 C 93 % 995,5 hPa 0,0 l/m 20,9 km/h (4 Bft) W 270 0 min 0 W/m 1,2 C -7,2 C 20,9 km/h (4 Bft)
05.12.2010 18:34 2,2 C 93 % 995,5 hPa 0,0 l/m 20,9 km/h (4 Bft) W 270 0 min 0 W/m 1,2 C -7,2 C 20,9 km/h (4 Bft)
05.12.2010 18:40 2,1 C 92 % 995,5 hPa 0,0 l/m 22,3 km/h (4 Bft) W 265 0 min 0 W/m 0,9 C -7,9 C 22,3 km/h (4 Bft)
05.12.2010 18:45 2,1 C 92 % 995,5 hPa 0,0 l/m 22,1 km/h (4 Bft) W 260 0 min 0 W/m 0,9 C -7,8 C 22,1 km/h (4 Bft)
05.12.2010 18:49 2,1 C 92 % 995,5 hPa 0,0 l/m 19,5 km/h (3 Bft) W 260 0 min 0 W/m 0,9 C -6,7 C 19,5 km/h (3 Bft)
05.12.2010 18:54 2,0 C 93 % 995,5 hPa 0,0 l/m 21,1 km/h (4 Bft) W 260 0 min 0 W/m 1,0 C -7,5 C 21,1 km/h (4 Bft)
05.12.2010 18:59 2,0 C 93 % 995,5 hPa 0,3 l/m 20,8 km/h (4 Bft) W 260 0 min 0 W/m 1,0 C -7,4 C 20,8 km/h (4 Bft)
05.12.2010 19:05 2,0 C 93 % 995,5 hPa 0,0 l/m 20,8 km/h (4 Bft) W 260 0 min 0 W/m 1,0 C -7,4 C 20,8 km/h (4 Bft)
05.12.2010 19:09 2,0 C 92 % 995,5 hPa 0,0 l/m 22,4 km/h (4 Bft) W 265 0 min 0 W/m 0,8 C -8,0 C 22,4 km/h (4 Bft)
05.12.2010 19:14 1,9 C 92 % 995,5 hPa 0,0 l/m 28,8 km/h (5 Bft) W 260 0 min 0 W/m 0,7 C -10,4 C 28,8 km/h (5 Bft)
05.12.2010 19:19 1,9 C 93 % 995,5 hPa 0,0 l/m 22,7 km/h (4 Bft) W 265 0 min 0 W/m 0,9 C -8,3 C 22,7 km/h (4 Bft)
05.12.2010 19:24 1,9 C 93 % 995,5 hPa 0,0 l/m 20,9 km/h (4 Bft) W-SW 255 0 min 0 W/m 0,9 C -7,6 C 20,9 km/h (4 Bft)
05.12.2010 19:30 1,9 C 93 % 995,5 hPa 0,0 l/m 20,9 km/h (4 Bft) W-SW 255 0 min 0 W/m 0,9 C -7,6 C 20,9 km/h (4 Bft)
05.12.2010 19:35 1,9 C 93 % 995,5 hPa 0,0 l/m 20,6 km/h (4 Bft) W-SW 250 0 min 0 W/m 0,9 C -7,4 C 20,6 km/h (4 Bft)
05.12.2010 19:39 2,0 C 93 % 995,5 hPa 0,0 l/m 22,0 km/h (4 Bft) W 260 0 min 0 W/m 1,0 C -7,9 C 22,0 km/h (4 Bft)
05.12.2010 19:44 2,0 C 93 % 995,5 hPa 0,0 l/m 18,8 km/h (3 Bft) W 260 0 min 0 W/m 1,0 C -6,5 C 18,8 km/h (3 Bft)
05.12.2010 19:49 2,1 C 92 % 995,5 hPa 0,0 l/m 25,0 km/h (4 Bft) W-SW 255 0 min 0 W/m 0,9 C -8,9 C 25,0 km/h (4 Bft)
05.12.2010 19:54 2,1 C 92 % 995,5 hPa 0,0 l/m 18,3 km/h (3 Bft) W 265 0 min 0 W/m 0,9 C -6,1 C 18,3 km/h (3 Bft)
05.12.2010 19:59 2,1 C 92 % 995,5 hPa 0,0 l/m 27,2 km/h (5 Bft) W 265 0 min 0 W/m 0,9 C -9,6 C 27,2 km/h (5 Bft)
05.12.2010 20:04 2,1 C 92 % 995,5 hPa 0,0 l/m 27,1 km/h (5 Bft) W-SW 255 0 min 0 W/m 0,9 C -9,6 C 27,1 km/h (5 Bft)
05.12.2010 20:09 2,2 C 92 % 995,5 hPa 0,0 l/m 24,6 km/h (4 Bft) W 260 0 min 0 W/m 1,0 C -8,6 C 24,6 km/h (4 Bft)
05.12.2010 20:14 2,2 C 92 % 995,5 hPa 0,0 l/m 23,2 km/h (4 Bft) W 275 0 min 0 W/m 1,0 C -8,1 C 23,2 km/h (4 Bft)
05.12.2010 20:19 2,1 C 92 % 995,5 hPa 0,0 l/m 19,8 km/h (3 Bft) W 265 0 min 0 W/m 0,9 C -6,8 C 19,8 km/h (3 Bft)
05.12.2010 20:25 2,1 C 92 % 995,5 hPa 0,0 l/m 19,8 km/h (3 Bft) W 265 0 min 0 W/m 0,9 C -6,8 C 19,8 km/h (3 Bft)
05.12.2010 20:30 2,1 C 92 % 996,5 hPa 0,0 l/m 22,1 km/h (4 Bft) W 265 0 min 0 W/m 0,9 C -7,8 C 22,1 km/h (4 Bft)
05.12.2010 20:34 2,1 C 92 % 996,5 hPa 0,0 l/m 23,0 km/h (4 Bft) W 265 0 min 0 W/m 0,9 C -8,1 C 23,0 km/h (4 Bft)
05.12.2010 20:39 2,1 C 92 % 996,5 hPa 0,3 l/m 16,6 km/h (3 Bft) W 275 0 min 0 W/m 0,9 C -5,3 C 16,6 km/h (3 Bft)
05.12.2010 20:44 2,1 C 92 % 996,5 hPa 0,0 l/m 20,6 km/h (4 Bft) W-NW 285 0 min 0 W/m 0,9 C -7,2 C 20,6 km/h (4 Bft)
05.12.2010 20:49 2,1 C 92 % 996,5 hPa 0,0 l/m 20,6 km/h (4 Bft) W-NW 285 0 min 0 W/m 0,9 C -7,2 C 20,6 km/h (4 Bft)
05.12.2010 20:55 2,0 C 92 % 996,5 hPa 0,0 l/m 23,0 km/h (4 Bft) W-SW 250 0 min 0 W/m 0,8 C -8,3 C 23,0 km/h (4 Bft)
05.12.2010 21:00 2,0 C 92 % 996,5 hPa 0,0 l/m 18,3 km/h (3 Bft) W-SW 255 0 min 0 W/m 0,8 C -6,3 C 18,3 km/h (3 Bft)
05.12.2010 21:04 2,0 C 93 % 996,5 hPa 0,3 l/m 18,3 km/h (3 Bft) W-SW 255 0 min 0 W/m 1,0 C -6,3 C 18,3 km/h (3 Bft)
05.12.2010 21:09 2,0 C 93 % 996,5 hPa 0,0 l/m 18,3 km/h (3 Bft) W-SW 255 0 min 0 W/m 1,0 C -6,3 C 18,3 km/h (3 Bft)
05.12.2010 21:14 2,1 C 93 % 996,5 hPa 0,0 l/m 18,3 km/h (3 Bft) W-SW 255 0 min 0 W/m 1,1 C -6,1 C 18,3 km/h (3 Bft)
05.12.2010 21:20 2,1 C 92 % 996,5 hPa 0,3 l/m 22,9 km/h (4 Bft) W-SW 255 0 min 0 W/m 0,9 C -8,1 C 22,9 km/h (4 Bft)
05.12.2010 21:24 2,0 C 92 % 996,5 hPa 0,0 l/m 22,6 km/h (4 Bft) W 260 0 min 0 W/m 0,8 C -8,1 C 22,6 km/h (4 Bft)
05.12.2010 21:29 1,9 C 93 % 996,5 hPa 0,0 l/m 22,6 km/h (4 Bft) W 260 0 min 0 W/m 0,9 C -8,3 C 22,6 km/h (4 Bft)
05.12.2010 21:34 1,9 C 93 % 996,5 hPa 0,0 l/m 26,6 km/h (4 Bft) W 260 0 min 0 W/m 0,9 C -9,7 C 26,6 km/h (4 Bft)
05.12.2010 21:39 2,0 C 93 % 996,5 hPa 0,0 l/m 23,0 km/h (4 Bft) W 270 0 min 0 W/m 1,0 C -8,3 C 23,0 km/h (4 Bft)
05.12.2010 21:44 2,0 C 93 % 996,5 hPa 0,0 l/m 23,0 km/h (4 Bft) W 270 0 min 0 W/m 1,0 C -8,3 C 23,0 km/h (4 Bft)
05.12.2010 21:50 2,0 C 93 % 996,5 hPa 0,3 l/m 23,0 km/h (4 Bft) W 270 0 min 0 W/m 1,0 C -8,3 C 23,0 km/h (4 Bft)
05.12.2010 21:54 2,0 C 93 % 996,5 hPa 0,0 l/m 23,0 km/h (4 Bft) W 270 0 min 0 W/m 1,0 C -8,3 C 23,0 km/h (4 Bft)
05.12.2010 21:59 2,0 C 93 % 996,5 hPa 0,0 l/m 23,0 km/h (4 Bft) W 270 0 min 0 W/m 1,0 C -8,3 C 23,0 km/h (4 Bft)
05.12.2010 22:04 2,0 C 93 % 996,5 hPa 0,0 l/m 14,7 km/h (3 Bft) W 275 0 min 0 W/m 1,0 C -4,4 C 14,7 km/h (3 Bft)
05.12.2010 22:10 2,0 C 93 % 996,5 hPa 0,0 l/m 14,7 km/h (3 Bft) W 275 0 min 0 W/m 1,0 C -4,4 C 14,7 km/h (3 Bft)
05.12.2010 22:14 2,0 C 93 % 996,5 hPa 0,0 l/m 14,7 km/h (3 Bft) W 275 0 min 0 W/m 1,0 C -4,4 C 14,7 km/h (3 Bft)
05.12.2010 22:19 1,9 C 93 % 996,5 hPa 0,0 l/m 17,4 km/h (3 Bft) W 260 0 min 0 W/m 0,9 C -6,0 C 17,4 km/h (3 Bft)
05.12.2010 22:24 2,0 C 93 % 996,5 hPa 0,0 l/m 17,2 km/h (3 Bft) W 270 0 min 0 W/m 1,0 C -5,7 C 17,2 km/h (3 Bft)
05.12.2010 22:29 2,0 C 93 % 996,5 hPa 0,3 l/m 17,2 km/h (3 Bft) W 270 0 min 0 W/m 1,0 C -5,7 C 17,2 km/h (3 Bft)
05.12.2010 22:34 2,1 C 93 % 996,5 hPa 0,0 l/m 15,6 km/h (3 Bft) W 270 0 min 0 W/m 1,1 C -4,8 C 15,6 km/h (3 Bft)
05.12.2010 22:40 2,1 C 93 % 996,5 hPa 0,0 l/m 15,6 km/h (3 Bft) W 270 0 min 0 W/m 1,1 C -4,8 C 15,6 km/h (3 Bft)
05.12.2010 22:44 2,1 C 93 % 996,5 hPa 0,0 l/m 12,6 km/h (3 Bft) W 270 0 min 0 W/m 1,1 C -3,0 C 12,6 km/h (3 Bft)
05.12.2010 22:49 2,1 C 93 % 996,5 hPa 0,0 l/m 15,0 km/h (3 Bft) W 260 0 min 0 W/m 1,1 C -4,4 C 15,0 km/h (3 Bft)
05.12.2010 22:54 2,2 C 93 % 996,5 hPa 0,0 l/m 15,0 km/h (3 Bft) W 260 0 min 0 W/m 1,2 C -4,3 C 15,0 km/h (3 Bft)
05.12.2010 22:59 2,2 C 93 % 996,5 hPa 0,0 l/m 14,8 km/h (3 Bft) W 260 0 min 0 W/m 1,2 C -4,2 C 14,8 km/h (3 Bft)
05.12.2010 23:04 2,2 C 93 % 996,5 hPa 0,0 l/m 14,8 km/h (3 Bft) W 260 0 min 0 W/m 1,2 C -4,2 C 14,8 km/h (3 Bft)
05.12.2010 23:09 2,2 C 93 % 996,5 hPa 0,0 l/m 15,8 km/h (3 Bft) W 260 0 min 0 W/m 1,2 C -4,8 C 15,8 km/h (3 Bft)
05.12.2010 23:14 2,2 C 93 % 996,5 hPa 0,0 l/m 13,6 km/h (3 Bft) W 265 0 min 0 W/m 1,2 C -3,5 C 13,6 km/h (3 Bft)
05.12.2010 23:19 2,1 C 93 % 996,5 hPa 0,0 l/m 13,6 km/h (3 Bft) W 265 0 min 0 W/m 1,1 C -3,6 C 13,6 km/h (3 Bft)
05.12.2010 23:25 2,0 C 93 % 996,5 hPa 0,0 l/m 15,6 km/h (3 Bft) W 270 0 min 0 W/m 1,0 C -4,9 C 15,6 km/h (3 Bft)
05.12.2010 23:30 2,0 C 93 % 996,5 hPa 0,0 l/m 15,6 km/h (3 Bft) W 270 0 min 0 W/m 1,0 C -4,9 C 15,6 km/h (3 Bft)
05.12.2010 23:34 2,0 C 93 % 996,5 hPa 0,0 l/m 14,5 km/h (3 Bft) W 265 0 min 0 W/m 1,0 C -4,3 C 14,5 km/h (3 Bft)
05.12.2010 23:39 2,0 C 93 % 996,5 hPa 0,0 l/m 19,0 km/h (3 Bft) W 260 0 min 0 W/m 1,0 C -6,6 C 19,0 km/h (3 Bft)
05.12.2010 23:44 1,9 C 93 % 996,5 hPa 0,0 l/m 17,6 km/h (3 Bft) W 265 0 min 0 W/m 0,9 C -6,1 C 17,6 km/h (3 Bft)
05.12.2010 23:49 1,9 C 93 % 996,5 hPa 0,0 l/m 20,0 km/h (4 Bft) W 260 0 min 0 W/m 0,9 C -7,2 C 20,0 km/h (4 Bft)
05.12.2010 23:55 1,9 C 93 % 996,5 hPa 0,0 l/m 20,0 km/h (4 Bft) W 260 0 min 0 W/m 0,9 C -7,2 C 20,0 km/h (4 Bft)
_ Min-Zeit 00:00 01:04 13:04 - 06:24 - - - - 01:04 10:19 06:24
Minimum _ -0,4 C 85 % 993,5 hPa - 6,5 km/h (2 Bft) - - - - -2,4 C -12,4 C 6,5 km/h (2 Bft)
_ Max-Zeit 13:39 09:30 00:00 18:59 11:24 - - 00:00 00:00 13:39 06:24 11:24
Maximum _ 2,5 C 95 % 1005,5 hPa 0,3 l/m 37,6 km/h
W-SW (5 Bft)
- - 0 min 0 W/m 1,8 C 0,2 C 37,6 km/h
W-SW (5 Bft)
Durchschnitt _ 1,3 C 92 % 996,8 hPa #1,8 l/m 21,2 km/h (4 Bft) W - #0 min. 0 W/m 0,2 C -8,0 C 21,2 km/h (4 Bft)
copyright by Holger Just